Time;durP1;ratioP1;P1;durP2;ratioP2;P2;SDS_P1;SDS_P2;PMS_P1;PMS_P2;Temp;Humidity;BMP_temperature;BMP_pressure;BME280_temperature;BME280_humidity;BME280_pressure;Samples;Min_cycle;Max_cycle;Signal;HPM_P1;HPM_P2
2021/11/25 00:00:46;;;;;;;;;51.00;38.67;;;;;;;;4994326;28;45363;-73
2021/11/25 00:03:12;;;;;;;;;45.67;39.00;;;;;;;;4993799;28;45533;-73
2021/11/25 00:05:38;;;;;;;;;52.00;42.33;;;;;;;;4981832;28;45413;-72
2021/11/25 00:08:03;;;;;;;;;57.00;41.75;;;;;;;;4994344;28;45469;-73
2021/11/25 00:10:29;;;;;;;;;53.75;41.50;;;;;;;;5010346;28;47031;-73
2021/11/25 00:12:55;;;;;;;;;45.75;39.25;;;;;;;;4999303;28;45693;-72
2021/11/25 00:15:21;;;;;;;;;50.75;41.25;;;;;;;;5007182;28;45519;-73
2021/11/25 00:17:46;;;;;;;;;47.50;38.25;;;;;;;;5004953;28;47776;-73
2021/11/25 00:20:12;;;;;;;;;48.50;38.00;;;;;;;;5010575;28;45328;-73
2021/11/25 00:22:37;;;;;;;;;42.25;37.75;;;;;;;;5010130;28;45497;-73
2021/11/25 00:25:03;;;;;;;;;51.50;41.00;;;;;;;;5013998;28;45694;-73
2021/11/25 00:27:28;;;;;;;;;49.00;40.50;;;;;;;;5000350;28;45506;-73
2021/11/25 00:29:54;;;;;;;;;48.67;39.00;;;;;;;;4999167;28;46085;-73
2021/11/25 00:32:19;;;;;;;;;44.67;38.00;;;;;;;;4994126;28;45395;-73
2021/11/25 00:34:44;;;;;;;;;57.67;43.00;;;;;;;;5008762;28;45443;-73
2021/11/25 00:37:09;;;;;;;;;47.00;38.00;;;;;;;;5007395;28;45547;-73
2021/11/25 00:39:34;;;;;;;;;46.00;38.67;;;;;;;;5014836;28;46691;-72
2021/11/25 00:42:00;;;;;;;;;47.00;39.33;;;;;;;;4998479;28;45344;-73
2021/11/25 00:44:25;;;;;;;;;52.00;41.67;;;;;;;;4989766;28;45500;-73
2021/11/25 00:46:50;;;;;;;;;45.33;39.33;;;;;;;;5006814;28;45513;-73
2021/11/25 00:49:15;;;;;;;;;43.33;38.33;;;;;;;;5009758;28;45373;-72
2021/11/25 00:51:40;;;;;;;;;51.00;42.33;;;;;;;;5000687;28;45579;-72
2021/11/25 00:54:06;;;;;;;;;47.67;35.33;;;;;;;;4997361;28;45580;-72
2021/11/25 00:56:31;;;;;;;;;50.33;40.00;;;;;;;;5002381;28;45853;-72
2021/11/25 00:58:56;;;;;;;;;45.00;39.00;;;;;;;;5003253;28;46130;-73
2021/11/25 01:01:21;;;;;;;;;41.67;34.00;;;;;;;;5000544;28;45405;-73
2021/11/25 01:03:46;;;;;;;;;34.00;29.33;;;;;;;;5013006;28;45398;-72
2021/11/25 01:06:12;;;;;;;;;41.33;30.67;;;;;;;;5006126;28;45407;-72
2021/11/25 01:08:37;;;;;;;;;26.25;22.00;;;;;;;;4999223;28;46674;-72
2021/11/25 01:11:04;;;;;;;;;25.33;18.67;;;;;;;;5003403;28;45295;-73
2021/11/25 01:13:29;;;;;;;;;21.75;21.50;;;;;;;;5003221;28;45561;-72
2021/11/25 01:15:54;;;;;;;;;26.67;21.67;;;;;;;;5011380;28;45524;-72
2021/11/25 01:18:20;;;;;;;;;24.00;21.67;;;;;;;;4998424;28;45345;-72
2021/11/25 01:20:47;;;;;;;;;23.75;21.75;;;;;;;;5001105;28;45513;-72
2021/11/25 01:23:14;;;;;;;;;22.25;18.50;;;;;;;;5002252;28;45391;-73
2021/11/25 01:25:39;;;;;;;;;33.00;22.00;;;;;;;;5003826;28;45501;-72
2021/11/25 01:28:07;;;;;;;;;23.67;20.00;;;;;;;;5012752;28;45949;-73
2021/11/25 01:30:32;;;;;;;;;26.50;24.25;;;;;;;;4998937;28;45354;-72
2021/11/25 01:32:57;;;;;;;;;23.00;19.75;;;;;;;;5011579;28;45280;-72
2021/11/25 01:35:22;;;;;;;;;29.33;21.33;;;;;;;;5004271;28;45436;-72
2021/11/25 01:37:50;;;;;;;;;26.67;23.00;;;;;;;;5004587;28;46012;-73
2021/11/25 01:40:17;;;;;;;;;25.25;22.50;;;;;;;;5001935;28;45690;-72
2021/11/25 01:42:42;;;;;;;;;26.00;19.75;;;;;;;;5008971;28;45526;-72
2021/11/25 01:45:08;;;;;;;;;23.00;20.25;;;;;;;;4997644;28;45369;-73
2021/11/25 01:47:34;;;;;;;;;26.25;22.50;;;;;;;;5001206;28;45283;-72
2021/11/25 01:49:59;;;;;;;;;21.25;18.50;;;;;;;;5001319;28;45410;-72
2021/11/25 01:52:24;;;;;;;;;23.00;21.33;;;;;;;;5004275;28;45415;-73
2021/11/25 01:54:49;;;;;;;;;27.25;22.00;;;;;;;;5001489;28;45465;-72
2021/11/25 01:57:15;;;;;;;;;26.67;21.00;;;;;;;;5012895;28;46398;-73
2021/11/25 01:59:40;;;;;;;;;21.67;21.00;;;;;;;;5012559;28;45561;-73
2021/11/25 02:02:07;;;;;;;;;22.50;18.25;;;;;;;;5001595;28;45693;-72
2021/11/25 02:04:32;;;;;;;;;25.75;21.50;;;;;;;;5002273;28;45641;-72
2021/11/25 02:06:57;;;;;;;;;26.00;23.67;;;;;;;;5005824;28;46110;-73
2021/11/25 02:09:22;;;;;;;;;32.33;22.00;;;;;;;;4997779;28;45563;-72
2021/11/25 02:11:48;;;;;;;;;31.75;26.75;;;;;;;;5007695;28;45757;-73
2021/11/25 02:14:14;;;;;;;;;27.00;21.50;;;;;;;;5002525;28;45569;-72
2021/11/25 02:16:39;;;;;;;;;25.00;20.75;;;;;;;;5005333;28;47323;-72
2021/11/25 02:19:06;;;;;;;;;30.00;23.75;;;;;;;;5002378;28;45572;-73
2021/11/25 02:21:31;;;;;;;;;24.75;20.25;;;;;;;;5016053;28;45565;-72
2021/11/25 02:23:56;;;;;;;;;23.33;22.33;;;;;;;;5008394;28;45397;-73
2021/11/25 02:26:22;;;;;;;;;39.00;32.67;;;;;;;;5005765;28;46277;-73
2021/11/25 02:28:47;;;;;;;;;37.33;28.33;;;;;;;;5005022;28;45340;-72
2021/11/25 02:31:12;;;;;;;;;39.00;29.50;;;;;;;;5001429;28;45615;-73
2021/11/25 02:33:39;;;;;;;;;45.67;35.67;;;;;;;;5013521;28;45431;-72
2021/11/25 02:36:04;;;;;;;;;41.50;34.25;;;;;;;;5004372;28;46334;-73
2021/11/25 02:38:30;;;;;;;;;44.00;33.25;;;;;;;;5012428;28;45519;-72
2021/11/25 02:40:56;;;;;;;;;37.67;28.67;;;;;;;;5013065;28;45424;-72
2021/11/25 02:43:26;;;;;;;;;34.50;26.50;;;;;;;;5010212;28;45472;-72
2021/11/25 02:46:02;;;;;;;;;36.50;31.75;;;;;;;;5004390;28;46274;-72
2021/11/25 02:48:29;;;;;;;;;35.25;29.00;;;;;;;;5001904;28;45946;-73
2021/11/25 02:50:55;;;;;;;;;32.25;28.50;;;;;;;;5013536;28;45494;-72
2021/11/25 02:53:22;;;;;;;;;31.25;28.50;;;;;;;;5006840;28;44793;-73
2021/11/25 02:55:48;;;;;;;;;36.25;31.25;;;;;;;;5004121;28;47578;-72
2021/11/25 02:58:13;;;;;;;;;34.50;29.50;;;;;;;;5002487;28;45401;-72
2021/11/25 03:00:40;;;;;;;;;32.33;30.00;;;;;;;;5003108;28;45375;-73
2021/11/25 03:03:07;;;;;;;;;30.75;26.25;;;;;;;;5014287;28;45451;-73
2021/11/25 03:05:32;;;;;;;;;41.75;32.00;;;;;;;;5009109;28;45423;-73
2021/11/25 03:08:02;;;;;;;;;35.50;28.75;;;;;;;;5006926;28;45660;-72
2021/11/25 03:10:28;;;;;;;;;38.00;32.50;;;;;;;;5005260;28;45396;-72
2021/11/25 03:12:53;;;;;;;;;32.25;25.75;;;;;;;;5016001;28;45495;-72
2021/11/25 03:15:18;;;;;;;;;37.33;32.00;;;;;;;;5000029;28;46042;-72
2021/11/25 03:17:44;;;;;;;;;38.00;32.67;;;;;;;;5002596;28;45344;-72
2021/11/25 03:20:11;;;;;;;;;31.67;28.33;;;;;;;;5004961;28;45411;-72
2021/11/25 03:22:36;;;;;;;;;36.25;31.25;;;;;;;;5009647;28;45443;-72
2021/11/25 03:25:01;;;;;;;;;35.67;31.00;;;;;;;;5015141;28;46450;-73
2021/11/25 03:27:26;;;;;;;;;35.25;29.25;;;;;;;;4999290;28;45581;-73
2021/11/25 03:29:52;;;;;;;;;38.33;30.33;;;;;;;;5009416;28;45552;-72
2021/11/25 03:32:17;;;;;;;;;35.33;30.00;;;;;;;;5010712;28;45375;-72
2021/11/25 03:34:42;;;;;;;;;45.00;32.33;;;;;;;;5009127;28;45540;-73
2021/11/25 03:37:07;;;;;;;;;35.00;27.33;;;;;;;;5001773;28;45324;-73
2021/11/25 03:39:33;;;;;;;;;33.75;27.00;;;;;;;;5015571;28;45418;-72
2021/11/25 03:41:58;;;;;;;;;21.00;18.25;;;;;;;;5009884;28;45391;-72
2021/11/25 03:44:23;;;;;;;;;30.67;21.33;;;;;;;;5011732;28;45486;-72
2021/11/25 03:46:49;;;;;;;;;30.25;19.00;;;;;;;;5008188;28;45293;-72
2021/11/25 03:49:14;;;;;;;;;25.33;21.00;;;;;;;;5004063;28;45344;-72
2021/11/25 03:51:39;;;;;;;;;28.00;17.67;;;;;;;;5005303;28;45487;-72
2021/11/25 03:54:05;;;;;;;;;17.25;15.00;;;;;;;;4999465;28;45984;-72
2021/11/25 03:56:30;;;;;;;;;28.00;18.00;;;;;;;;5002736;28;45434;-72
2021/11/25 03:58:55;;;;;;;;;17.25;15.50;;;;;;;;5005721;28;45412;-72
2021/11/25 04:01:23;;;;;;;;;18.00;13.67;;;;;;;;5010727;28;45450;-72
2021/11/25 04:03:48;;;;;;;;;24.25;18.00;;;;;;;;5015056;28;46986;-73
2021/11/25 04:06:14;;;;;;;;;22.25;18.75;;;;;;;;4999792;28;45566;-72
2021/11/25 04:08:39;;;;;;;;;20.00;17.33;;;;;;;;5001664;28;45458;-72
2021/11/25 04:11:06;;;;;;;;;19.00;19.00;;;;;;;;5007222;28;46114;-72
2021/11/25 04:13:31;;;;;;;;;17.50;14.00;;;;;;;;5008941;28;46366;-72
2021/11/25 04:15:56;;;;;;;;;19.00;18.00;;;;;;;;4999997;28;45454;-72
2021/11/25 04:18:22;;;;;;;;;22.00;17.00;;;;;;;;5013540;28;45371;-73
2021/11/25 04:20:47;;;;;;;;;14.00;13.00;;;;;;;;5001713;28;45486;-72
2021/11/25 04:23:12;;;;;;;;;20.67;16.00;;;;;;;;5004339;28;46356;-73
2021/11/25 04:25:38;;;;;;;;;22.00;17.00;;;;;;;;5002373;28;45376;-73
2021/11/25 04:28:03;;;;;;;;;20.25;17.00;;;;;;;;5003977;28;45407;-72
2021/11/25 04:30:49;;;;;;;;;23.00;19.50;;;;;;;;5010374;28;45466;-71
2021/11/25 04:35:58;;;;;;;;;19.25;14.50;;;;;;;;5011345;28;45352;-72
2021/11/25 04:38:24;;;;;;;;;19.33;17.00;;;;;;;;5001772;28;45380;-73
2021/11/25 04:40:58;;;;;;;;;18.00;14.75;;;;;;;;5005903;28;45503;-72
2021/11/25 04:43:23;;;;;;;;;21.25;17.00;;;;;;;;5009767;28;46110;-72
2021/11/25 04:45:49;;;;;;;;;21.75;18.75;;;;;;;;5005172;28;45524;-72
2021/11/25 04:48:15;;;;;;;;;19.00;18.25;;;;;;;;4998848;28;45475;-72
2021/11/25 04:50:41;;;;;;;;;27.50;14.00;;;;;;;;5000755;28;45431;-72
2021/11/25 04:53:07;;;;;;;;;20.25;14.75;;;;;;;;5003875;28;45939;-73
2021/11/25 04:55:32;;;;;;;;;18.50;15.75;;;;;;;;5004006;28;45446;-72
2021/11/25 04:57:57;;;;;;;;;24.00;18.33;;;;;;;;5013395;28;45538;-73
2021/11/25 05:00:23;;;;;;;;;20.00;15.67;;;;;;;;5008155;28;45572;-73
2021/11/25 05:02:48;;;;;;;;;16.50;13.50;;;;;;;;5012782;28;45271;-72
2021/11/25 05:05:14;;;;;;;;;23.00;21.00;;;;;;;;5007139;28;45435;-72
2021/11/25 05:07:39;;;;;;;;;28.75;21.50;;;;;;;;5002371;28;45474;-73
2021/11/25 05:10:05;;;;;;;;;29.67;22.00;;;;;;;;5012824;28;45423;-72
2021/11/25 05:12:30;;;;;;;;;40.25;32.50;;;;;;;;5007830;28;46064;-73
2021/11/25 05:14:56;;;;;;;;;32.00;24.75;;;;;;;;4994984;28;45332;-73
2021/11/25 05:17:21;;;;;;;;;28.33;23.67;;;;;;;;5003470;28;45518;-72
2021/11/25 05:19:46;;;;;;;;;28.33;25.00;;;;;;;;5007238;28;45431;-72
2021/11/25 05:22:11;;;;;;;;;36.33;29.33;;;;;;;;5010603;28;45435;-73
2021/11/25 05:24:36;;;;;;;;;35.67;27.33;;;;;;;;5002143;28;45394;-73
2021/11/25 05:27:02;;;;;;;;;40.33;31.00;;;;;;;;5000323;28;45325;-73
2021/11/25 05:29:27;;;;;;;;;43.75;31.00;;;;;;;;5008264;28;45474;-73
2021/11/25 05:31:52;;;;;;;;;44.67;31.00;;;;;;;;5000776;28;45977;-72
2021/11/25 05:34:18;;;;;;;;;49.00;34.67;;;;;;;;5009943;28;45474;-73
2021/11/25 05:36:44;;;;;;;;;39.75;31.75;;;;;;;;5010421;28;45427;-72
2021/11/25 05:39:09;;;;;;;;;46.00;39.00;;;;;;;;5011752;28;45687;-72
2021/11/25 05:41:35;;;;;;;;;41.00;32.25;;;;;;;;5004655;28;45356;-73
2021/11/25 05:44:00;;;;;;;;;45.00;33.67;;;;;;;;4996450;28;45439;-72
2021/11/25 05:46:25;;;;;;;;;57.00;39.00;;;;;;;;5002653;28;45528;-72
2021/11/25 05:48:50;;;;;;;;;38.33;30.67;;;;;;;;4997719;28;48098;-72
2021/11/25 05:51:16;;;;;;;;;44.67;41.00;;;;;;;;5016479;28;45447;-72
2021/11/25 05:53:41;;;;;;;;;48.67;39.33;;;;;;;;5006927;28;45709;-73
2021/11/25 05:56:06;;;;;;;;;40.67;34.00;;;;;;;;5011388;28;45481;-72
2021/11/25 05:58:31;;;;;;;;;52.00;39.00;;;;;;;;5012094;28;45426;-72
2021/11/25 06:00:56;;;;;;;;;51.00;42.00;;;;;;;;5007745;28;46147;-72
2021/11/25 06:03:22;;;;;;;;;48.67;39.00;;;;;;;;5006809;28;45570;-72
2021/11/25 06:05:48;;;;;;;;;37.50;35.25;;;;;;;;5009583;28;45413;-73
2021/11/25 06:08:13;;;;;;;;;41.25;33.50;;;;;;;;5009341;28;45440;-73
2021/11/25 06:10:38;;;;;;;;;51.00;40.67;;;;;;;;5010994;28;45594;-73
2021/11/25 06:13:03;;;;;;;;;57.33;42.00;;;;;;;;5009876;28;45617;-73
2021/11/25 06:15:29;;;;;;;;;55.00;38.33;;;;;;;;5016139;28;45345;-73
2021/11/25 06:17:55;;;;;;;;;52.67;41.00;;;;;;;;5014772;28;45295;-73
2021/11/25 06:20:21;;;;;;;;;60.75;35.25;;;;;;;;5017348;28;46185;-73
2021/11/25 06:22:48;;;;;;;;;45.25;40.50;;;;;;;;5011308;28;45706;-73
2021/11/25 06:25:14;;;;;;;;;57.75;40.25;;;;;;;;5006044;28;45268;-73
2021/11/25 06:27:39;;;;;;;;;51.50;41.25;;;;;;;;5016139;28;45533;-73
2021/11/25 06:30:05;;;;;;;;;58.00;41.67;;;;;;;;5001987;28;47149;-73
2021/11/25 06:32:30;;;;;;;;;55.00;40.50;;;;;;;;5008607;28;45543;-73
2021/11/25 06:34:56;;;;;;;;;47.33;41.67;;;;;;;;5011156;28;45347;-73
2021/11/25 06:37:21;;;;;;;;;43.33;36.00;;;;;;;;5014151;28;45424;-73
2021/11/25 06:39:46;;;;;;;;;55.00;41.67;;;;;;;;5007790;28;48111;-73
2021/11/25 06:42:11;;;;;;;;;54.33;42.33;;;;;;;;5013975;28;45462;-73
2021/11/25 06:44:36;;;;;;;;;48.67;37.00;;;;;;;;5006927;28;45431;-73
2021/11/25 06:47:02;;;;;;;;;60.00;44.33;;;;;;;;5013464;28;45316;-74
2021/11/25 06:49:27;;;;;;;;;44.00;36.67;;;;;;;;5014815;28;46041;-73
2021/11/25 06:51:52;;;;;;;;;55.33;41.33;;;;;;;;5005194;28;45442;-73
2021/11/25 06:54:17;;;;;;;;;47.67;39.33;;;;;;;;5004375;28;45634;-72
2021/11/25 06:56:42;;;;;;;;;60.67;44.00;;;;;;;;5014110;28;45496;-73
2021/11/25 06:59:08;;;;;;;;;51.33;44.00;;;;;;;;5004586;28;45605;-73
2021/11/25 07:01:33;;;;;;;;;53.00;41.50;;;;;;;;5004304;28;45391;-73
2021/11/25 07:03:58;;;;;;;;;53.33;40.67;;;;;;;;4999540;28;45832;-73
2021/11/25 07:06:23;;;;;;;;;54.67;41.00;;;;;;;;5016351;28;45405;-73
2021/11/25 07:08:49;;;;;;;;;54.00;38.00;;;;;;;;4999818;28;45527;-73
2021/11/25 07:11:14;;;;;;;;;58.00;41.33;;;;;;;;5004728;28;45522;-72
2021/11/25 07:13:39;;;;;;;;;57.00;41.67;;;;;;;;5003223;28;45462;-73
2021/11/25 07:16:04;;;;;;;;;52.75;41.75;;;;;;;;5005616;28;45538;-73
2021/11/25 07:18:30;;;;;;;;;56.75;41.75;;;;;;;;5010857;28;45595;-73
2021/11/25 07:20:55;;;;;;;;;57.25;42.75;;;;;;;;4998785;28;45316;-71
2021/11/25 07:23:20;;;;;;;;;48.67;32.33;;;;;;;;5005793;28;45526;-74
2021/11/25 07:25:46;;;;;;;;;69.25;45.00;;;;;;;;5007512;28;45456;-73
2021/11/25 07:28:11;;;;;;;;;53.67;42.00;;;;;;;;5006615;28;48654;-73
2021/11/25 07:30:36;;;;;;;;;42.67;31.33;;;;;;;;5001290;28;45399;-73
2021/11/25 07:33:02;;;;;;;;;61.33;48.00;;;;;;;;4998998;28;45569;-73
2021/11/25 07:35:27;;;;;;;;;54.25;42.00;;;;;;;;5002623;28;45546;-73
2021/11/25 07:37:53;;;;;;;;;61.67;43.33;;;;;;;;5004178;28;46737;-73
2021/11/25 07:40:19;;;;;;;;;65.50;49.25;;;;;;;;5004684;28;45792;-72
2021/11/25 07:42:44;;;;;;;;;67.50;46.25;;;;;;;;5003026;28;45370;-73
2021/11/25 07:45:10;;;;;;;;;72.67;53.67;;;;;;;;4999611;28;45344;-73
2021/11/25 07:47:37;;;;;;;;;67.67;48.33;;;;;;;;5001299;28;46286;-72
2021/11/25 07:50:13;;;;;;;;;57.00;45.00;;;;;;;;5004446;28;45752;-72
2021/11/25 07:52:38;;;;;;;;;71.50;52.75;;;;;;;;5004328;28;45376;-72
2021/11/25 07:55:05;;;;;;;;;67.75;50.50;;;;;;;;5004241;28;45462;-72
2021/11/25 07:57:30;;;;;;;;;61.75;47.50;;;;;;;;5007015;28;46380;-72
2021/11/25 07:59:55;;;;;;;;;63.33;43.67;;;;;;;;5012338;28;45597;-72
2021/11/25 08:02:21;;;;;;;;;63.00;47.33;;;;;;;;5009918;28;45603;-72
2021/11/25 08:04:46;;;;;;;;;70.00;48.50;;;;;;;;5006999;28;45535;-72
2021/11/25 08:07:11;;;;;;;;;59.00;41.25;;;;;;;;5003744;28;45794;-72
2021/11/25 08:09:37;;;;;;;;;67.00;47.67;;;;;;;;5012024;28;45403;-72
2021/11/25 08:12:02;;;;;;;;;65.00;45.33;;;;;;;;4999678;28;45417;-72
2021/11/25 08:14:27;;;;;;;;;59.75;48.00;;;;;;;;5009913;28;45524;-73
2021/11/25 08:16:58;;;;;;;;;64.33;49.33;;;;;;;;5006744;28;46209;-71
2021/11/25 08:19:23;;;;;;;;;55.75;43.50;;;;;;;;5011577;28;45848;-72
2021/11/25 08:21:48;;;;;;;;;57.00;46.67;;;;;;;;5003332;28;45436;-73
2021/11/25 08:24:13;;;;;;;;;60.67;47.00;;;;;;;;4999449;28;45321;-72
2021/11/25 08:26:38;;;;;;;;;61.00;44.00;;;;;;;;5010545;28;45535;-72
2021/11/25 08:29:03;;;;;;;;;54.67;45.67;;;;;;;;5008408;28;45464;-73
2021/11/25 08:31:29;;;;;;;;;60.00;46.00;;;;;;;;5010685;28;45435;-72
2021/11/25 08:33:54;;;;;;;;;55.00;40.67;;;;;;;;5008019;28;46077;-71
2021/11/25 08:36:19;;;;;;;;;45.33;36.33;;;;;;;;4999906;28;46317;-72
2021/11/25 08:38:44;;;;;;;;;54.33;41.00;;;;;;;;5006023;28;45471;-72
2021/11/25 08:41:10;;;;;;;;;58.75;44.75;;;;;;;;5003733;28;45289;-72
2021/11/25 08:43:35;;;;;;;;;59.25;43.00;;;;;;;;5000090;28;45409;-71
2021/11/25 08:46:00;;;;;;;;;56.00;42.75;;;;;;;;4999683;28;45912;-72
2021/11/25 08:48:26;;;;;;;;;57.00;42.25;;;;;;;;5014791;28;45497;-72
2021/11/25 08:50:51;;;;;;;;;54.67;41.33;;;;;;;;4999109;28;45344;-71
2021/11/25 08:53:16;;;;;;;;;55.33;41.00;;;;;;;;5008984;28;45347;-71
2021/11/25 08:55:41;;;;;;;;;50.33;42.33;;;;;;;;5009242;28;45500;-72
2021/11/25 08:58:06;;;;;;;;;55.33;42.00;;;;;;;;5011438;28;45261;-71
2021/11/25 09:00:33;;;;;;;;;51.33;42.00;;;;;;;;4999328;28;45401;-72
2021/11/25 09:02:59;;;;;;;;;46.25;40.25;;;;;;;;4998911;28;45686;-71
2021/11/25 09:05:24;;;;;;;;;50.75;39.50;;;;;;;;5010401;28;46168;-71
2021/11/25 09:07:50;;;;;;;;;58.00;41.67;;;;;;;;5005153;28;45446;-71
2021/11/25 09:10:15;;;;;;;;;55.50;42.50;;;;;;;;5003406;28;45452;-71
2021/11/25 09:12:40;;;;;;;;;54.00;39.33;;;;;;;;5008435;28;45537;-72
2021/11/25 09:15:06;;;;;;;;;55.00;41.50;;;;;;;;5012437;28;46117;-72
2021/11/25 09:17:31;;;;;;;;;53.25;38.25;;;;;;;;5010341;28;45435;-72
2021/11/25 09:19:58;;;;;;;;;51.50;39.75;;;;;;;;5006061;28;45343;-71
2021/11/25 09:22:23;;;;;;;;;56.75;39.75;;;;;;;;5002979;28;45479;-72
2021/11/25 09:24:48;;;;;;;;;54.67;40.00;;;;;;;;4997759;28;46204;-71
2021/11/25 09:27:13;;;;;;;;;51.33;39.00;;;;;;;;5002166;28;46074;-72
2021/11/25 09:29:38;;;;;;;;;60.67;43.33;;;;;;;;4997083;28;45337;-72
2021/11/25 09:32:04;;;;;;;;;66.33;44.00;;;;;;;;5004207;28;45435;-72
2021/11/25 09:34:29;;;;;;;;;54.75;40.75;;;;;;;;4998889;28;47075;-72
2021/11/25 09:36:54;;;;;;;;;55.33;39.00;;;;;;;;5001984;28;45443;-71
2021/11/25 09:39:20;;;;;;;;;51.67;41.00;;;;;;;;4998500;28;45376;-71
2021/11/25 09:41:46;;;;;;;;;53.50;41.75;;;;;;;;4998740;28;45782;-72
2021/11/25 09:44:11;;;;;;;;;54.25;41.75;;;;;;;;5010192;28;45975;-72
2021/11/25 09:46:37;;;;;;;;;59.67;44.00;;;;;;;;5008435;28;45468;-72
2021/11/25 09:49:04;;;;;;;;;57.25;42.75;;;;;;;;5003032;28;45375;-72
2021/11/25 09:51:29;;;;;;;;;49.00;37.75;;;;;;;;5012809;28;45562;-71
2021/11/25 09:53:55;;;;;;;;;59.00;43.00;;;;;;;;4999783;28;46490;-71
2021/11/25 09:56:20;;;;;;;;;56.75;42.50;;;;;;;;5001506;28;45889;-72
2021/11/25 09:58:47;;;;;;;;;55.50;42.50;;;;;;;;5002425;28;45419;-72
2021/11/25 10:01:14;;;;;;;;;53.75;39.25;;;;;;;;5002640;28;45474;-71
2021/11/25 10:03:42;;;;;;;;;51.75;42.00;;;;;;;;5002889;28;47020;-72
2021/11/25 10:06:07;;;;;;;;;53.50;40.00;;;;;;;;5002275;28;45494;-72
2021/11/25 10:08:44;;;;;;;;;59.50;41.25;;;;;;;;5000133;28;45495;-72
2021/11/25 10:11:11;;;;;;;;;54.25;41.00;;;;;;;;5001976;28;45349;-72
2021/11/25 10:14:07;;;;;;;;;51.25;40.25;;;;;;;;5001994;28;45425;-72
2021/11/25 10:16:37;;;;;;;;;56.75;42.50;;;;;;;;4997737;28;45979;-72
2021/11/25 10:19:12;;;;;;;;;54.25;40.75;;;;;;;;5002474;28;45563;-72
2021/11/25 10:21:40;;;;;;;;;57.50;40.50;;;;;;;;4999639;28;45356;-72
2021/11/25 10:24:05;;;;;;;;;50.75;41.50;;;;;;;;4997600;28;45344;-72
2021/11/25 10:26:30;;;;;;;;;60.67;43.00;;;;;;;;5010012;28;45442;-72
2021/11/25 10:29:03;;;;;;;;;45.00;38.33;;;;;;;;5005908;28;45356;-72
2021/11/25 10:31:31;;;;;;;;;57.25;40.50;;;;;;;;5010353;28;45536;-71
2021/11/25 10:34:03;;;;;;;;;55.50;41.75;;;;;;;;5013675;28;46314;-72
2021/11/25 10:39:29;;;;;;;;;55.75;41.25;;;;;;;;5000875;28;45373;-71
2021/11/25 10:41:56;;;;;;;;;53.50;40.25;;;;;;;;5012712;28;45411;-72
2021/11/25 10:44:23;;;;;;;;;54.00;41.75;;;;;;;;5005718;28;45473;-71
2021/11/25 10:46:55;;;;;;;;;53.75;39.75;;;;;;;;5001245;28;45956;-72
2021/11/25 10:49:34;;;;;;;;;59.25;44.00;;;;;;;;5004035;28;45424;-72
2021/11/25 10:52:01;;;;;;;;;58.25;43.50;;;;;;;;5016213;28;45464;-71
2021/11/25 10:54:27;;;;;;;;;56.25;43.25;;;;;;;;5001391;28;46178;-71
2021/11/25 10:56:55;;;;;;;;;55.75;43.00;;;;;;;;5001022;28;45384;-71
2021/11/25 10:59:22;;;;;;;;;58.25;42.25;;;;;;;;5012066;28;45485;-71
2021/11/25 11:01:49;;;;;;;;;59.25;43.50;;;;;;;;5009726;28;45555;-71
2021/11/25 11:04:14;;;;;;;;;58.75;43.75;;;;;;;;5004960;28;47014;-71
2021/11/25 11:06:41;;;;;;;;;58.00;45.00;;;;;;;;5001559;28;45586;-71
2021/11/25 11:09:07;;;;;;;;;58.00;42.00;;;;;;;;5000397;28;45422;-71
2021/11/25 11:11:35;;;;;;;;;58.50;42.50;;;;;;;;5003550;28;45673;-71
2021/11/25 11:14:15;;;;;;;;;59.25;44.50;;;;;;;;5005272;28;46472;-71
2021/11/25 11:16:53;;;;;;;;;58.75;45.75;;;;;;;;5005584;28;45463;-72
2021/11/25 11:19:18;;;;;;;;;60.00;45.25;;;;;;;;4994053;28;45561;-71
2021/11/25 11:21:44;;;;;;;;;56.33;42.67;;;;;;;;5003068;28;45418;-71
2021/11/25 11:24:09;;;;;;;;;63.50;44.25;;;;;;;;5015714;28;45320;-71
2021/11/25 11:26:40;;;;;;;;;56.67;44.67;;;;;;;;5011569;28;45371;-71
2021/11/25 11:29:05;;;;;;;;;63.50;46.50;;;;;;;;5006730;28;45445;-71
2021/11/25 11:31:34;;;;;;;;;56.67;42.00;;;;;;;;5002739;28;45460;-71
2021/11/25 11:34:01;;;;;;;;;62.25;46.25;;;;;;;;5015332;28;49682;-71
2021/11/25 11:36:27;;;;;;;;;65.75;47.00;;;;;;;;5000628;28;45928;-71
2021/11/25 11:38:54;;;;;;;;;60.50;44.00;;;;;;;;5000903;28;45390;-71
2021/11/25 11:41:19;;;;;;;;;62.25;46.00;;;;;;;;5004498;28;45602;-70
2021/11/25 11:43:44;;;;;;;;;60.25;45.75;;;;;;;;5004346;28;46153;-70
2021/11/25 11:46:10;;;;;;;;;61.67;46.00;;;;;;;;5004355;28;45325;-72
2021/11/25 11:48:36;;;;;;;;;57.25;42.50;;;;;;;;4999291;28;45416;-72
2021/11/25 11:51:10;;;;;;;;;67.25;50.00;;;;;;;;5000431;28;45308;-72
2021/11/25 11:53:40;;;;;;;;;58.50;45.00;;;;;;;;5002806;28;45876;-72
2021/11/25 11:56:06;;;;;;;;;58.25;42.25;;;;;;;;5004130;28;45275;-72
2021/11/25 11:58:33;;;;;;;;;66.25;48.75;;;;;;;;5004653;28;45423;-72
2021/11/25 12:01:03;;;;;;;;;63.25;47.25;;;;;;;;5002654;28;45335;-71
2021/11/25 12:03:30;;;;;;;;;60.50;45.00;;;;;;;;5005803;28;46253;-72
2021/11/25 12:05:55;;;;;;;;;62.25;48.75;;;;;;;;5016118;28;45428;-72
2021/11/25 12:08:20;;;;;;;;;60.67;48.00;;;;;;;;5013524;28;45472;-72
2021/11/25 12:11:00;;;;;;;;;59.50;49.50;;;;;;;;5011022;28;45360;-72
2021/11/25 12:13:26;;;;;;;;;70.75;48.50;;;;;;;;5010930;28;46330;-72
2021/11/25 12:16:11;;;;;;;;;65.50;51.00;;;;;;;;5015217;28;45524;-72
2021/11/25 12:18:37;;;;;;;;;74.00;53.00;;;;;;;;5001252;28;45368;-72
2021/11/25 12:21:03;;;;;;;;;67.50;50.00;;;;;;;;4999288;28;45296;-72
2021/11/25 12:23:36;;;;;;;;;66.00;48.25;;;;;;;;5003023;28;46062;-72
2021/11/25 12:26:02;;;;;;;;;68.50;52.25;;;;;;;;5003822;28;45285;-72
2021/11/25 12:28:28;;;;;;;;;72.25;54.25;;;;;;;;5003795;28;45364;-72
2021/11/25 12:31:07;;;;;;;;;63.75;47.75;;;;;;;;5003464;28;45426;-72
2021/11/25 12:33:42;;;;;;;;;71.25;52.75;;;;;;;;5000251;28;46226;-72
2021/11/25 12:36:09;;;;;;;;;75.75;53.75;;;;;;;;4999526;28;45427;-72
2021/11/25 12:38:36;;;;;;;;;62.75;47.25;;;;;;;;5002865;28;45423;-72
2021/11/25 12:41:03;;;;;;;;;68.00;47.25;;;;;;;;5001386;28;45484;-72
2021/11/25 12:43:29;;;;;;;;;91.75;68.50;;;;;;;;5003151;28;46242;-73
2021/11/25 12:46:05;;;;;;;;;82.50;61.50;;;;;;;;5007330;28;45456;-72
2021/11/25 12:48:31;;;;;;;;;67.75;52.25;;;;;;;;5000586;28;45652;-71
2021/11/25 12:51:02;;;;;;;;;61.00;47.00;;;;;;;;4999161;28;45605;-72
2021/11/25 12:53:32;;;;;;;;;59.75;45.00;;;;;;;;5002056;28;46034;-72
2021/11/25 12:56:07;;;;;;;;;59.25;44.75;;;;;;;;5003532;28;46057;-72
2021/11/25 12:58:33;;;;;;;;;62.25;45.00;;;;;;;;5003177;28;45557;-72
2021/11/25 13:01:00;;;;;;;;;69.25;52.75;;;;;;;;5003310;28;45284;-72
2021/11/25 13:03:25;;;;;;;;;64.50;49.25;;;;;;;;4998995;28;46610;-73
2021/11/25 13:05:51;;;;;;;;;85.00;61.00;;;;;;;;4999986;28;45680;-73
2021/11/25 13:08:25;;;;;;;;;75.25;58.25;;;;;;;;5002446;28;45483;-72
2021/11/25 13:10:51;;;;;;;;;70.75;53.25;;;;;;;;5009274;28;45423;-72
2021/11/25 13:13:18;;;;;;;;;103.75;91.25;;;;;;;;5011486;28;45457;-72
2021/11/25 13:16:00;;;;;;;;;84.00;62.25;;;;;;;;5005973;28;45804;-73
2021/11/25 13:18:42;;;;;;;;;86.50;63.50;;;;;;;;4999067;28;45383;-72
2021/11/25 13:21:18;;;;;;;;;69.25;53.25;;;;;;;;4998150;28;45496;-72
2021/11/25 13:23:48;;;;;;;;;84.75;63.25;;;;;;;;5014109;28;45530;-72
2021/11/25 13:26:13;;;;;;;;;76.75;56.00;;;;;;;;5010131;28;45781;-72
2021/11/25 13:28:39;;;;;;;;;84.67;65.00;;;;;;;;5008402;28;45430;-72
2021/11/25 13:31:11;;;;;;;;;83.50;61.75;;;;;;;;5002943;28;45454;-72
2021/11/25 13:33:53;;;;;;;;;68.25;51.50;;;;;;;;5000337;28;46529;-72
2021/11/25 13:36:18;;;;;;;;;88.25;63.25;;;;;;;;4997691;28;45379;-72
2021/11/25 13:38:48;;;;;;;;;56.75;43.25;;;;;;;;5001557;28;45402;-72
2021/11/25 13:41:13;;;;;;;;;55.25;43.00;;;;;;;;5009592;28;45332;-72
2021/11/25 13:43:49;;;;;;;;;62.75;46.50;;;;;;;;5008129;28;45973;-72
2021/11/25 13:46:15;;;;;;;;;58.25;44.25;;;;;;;;5006570;28;45870;-72
2021/11/25 13:48:40;;;;;;;;;62.75;44.50;;;;;;;;5000490;28;45561;-71
2021/11/25 13:51:05;;;;;;;;;58.00;44.75;;;;;;;;4997707;28;45440;-72
2021/11/25 13:53:31;;;;;;;;;61.00;43.67;;;;;;;;5001746;28;46327;-71
2021/11/25 13:55:57;;;;;;;;;59.25;43.00;;;;;;;;5002334;28;45545;-72
2021/11/25 13:58:23;;;;;;;;;58.00;43.00;;;;;;;;5002238;28;45371;-72
2021/11/25 14:00:50;;;;;;;;;58.75;40.75;;;;;;;;5010373;28;45416;-72
2021/11/25 14:03:16;;;;;;;;;64.50;46.00;;;;;;;;5012801;28;45415;-72
2021/11/25 14:05:45;;;;;;;;;58.33;45.33;;;;;;;;4999537;28;45348;-72
2021/11/25 14:08:10;;;;;;;;;68.75;50.00;;;;;;;;5002277;28;45603;-72
2021/11/25 14:10:36;;;;;;;;;60.25;45.75;;;;;;;;5003083;28;45431;-72
2021/11/25 14:13:03;;;;;;;;;58.33;46.33;;;;;;;;5005805;28;45513;-72
2021/11/25 14:15:32;;;;;;;;;63.75;42.75;;;;;;;;5001711;28;45508;-72
2021/11/25 14:18:06;;;;;;;;;60.75;43.75;;;;;;;;5014330;28;45400;-72